Aérodrome :
LOGIN :

S'inscrire | Disclaimer

   EN    FR    IT 

 










Légende :    VFR   VFR Marginal   IFR   IFR Intensif   IFR Très Intensif
Visi : 
Plafond : 
>= 8 km
>= 3000ft
5 à 8 km
1000 à 3000 ft
1500m à 5 km
500 à 1000 ft
800 à 1500m
200 à 500 ft
< 800m
< 200 ft
Symboles :   Orages  Brouillard  Fortes neiges  Fortes précipitations  Vent > 20 kt
SIGMETs :   Divers  Orages  Givrage  Turbulence  Onde Orograph.  Cendres Volcan.







- Altitude de l'aérodrome : 645 ft
- Code IATA : DLE
- Voir les cartes d'approche


LFGJ - Dole Tavaux

DERNIER METAR :
  • 011730Z AUTO 19019KT 9999 -RA OVC029 07/04 Q1011 TEMPO 20020G32KT 4000 RA

METARs EXPIRÉS :
  • 011700Z AUTO 19019KT 9999 -RA OVC030 07/04 Q1011 TEMPO 20020G32KT 4000 RA
  • 011630Z AUTO 19020G33KT 9999 OVC031 07/04 Q1011 TEMPO 4000 RA
  • 011600Z AUTO 18019KT 9999 -RA OVC033 07/04 Q1010 TEMPO 20020G32KT 4000 RA
  • 011530Z AUTO 19018KT 9999 -RA OVC036 08/04 Q1011 TEMPO 20020G32KT 4000 RA
  • 011500Z AUTO 19017KT 9999 -RA OVC036 08/04 Q1011 TEMPO 20020G32KT 4000 RA

TAF TAF LFGJ
Valide du 01 à 15h jusqu'au 02 à 00h UTC


011400Z 0115/0124 18015G25KT 9999 SCT025 BKN045
TEMPO 0115/0124 20020G32KT 4000 RA
Pas de NOTAMs connus pour ce terrain.
1 SIGMET publié pour la FIR Reims (LFEE) :
 
Turbulence forte
LFEE SIGMET 4 VALID 011800/012200 LFPW
LFEE REIMS FIR/UIR SEV TURB FCST E OF LINE N4630 E00445 - N4915 E00645 SFC/FL060 STNR INTSF=



MET'MAP, la Météo Aéronautique d'un coup d'oeil ! - Copyright ORBIFLY Décembre 2007 - Disclaimer

ORBIFLY MET'MAP TEAM :

Programmation & Développement : Alexandra Zaïnal
Conception & Développement : Baudouin d'Aumeries
Co-Programmation & Développement : Marc-Olivier Méhu
Soutien technique & logistique : Manuel Goepfert

Contact : metmap@orbifly.com




SOURCES & CREDITS :

   NOAA